Stormwatcher's Retreat Logo




                  Temp     Hi    Low   Out    Dew  Wind  Wind   Wind    Hi    Hi   Wind   Heat    THW   THSW                Rain  Solar   Solar Hi Solar   UV    UV    Hi     Heat    Cool    In     In    In     In     In   In Air          Wind  Wind    ISS   Arc.
  Date    Time     Out   Temp   Temp   Hum    Pt. Speed   Dir    Run Speed   Dir  Chill  Index  Index  Index   Bar    Rain  Rate   Rad.  Energy    Rad.  Index  Dose   UV     D-D     D-D    Temp   Hum    Dew   Heat    EMC Density     ET   Samp   Tx   Recept  Int.
------------------------------------------------------------------------------------------------------------------------------------------------------------------------------------------------------------------------------------------------------------------------
 6/22/18 12:10a   59.7   59.8   59.7    88   56.1   1.0   ENE   0.17   3.0   ENE   59.7   59.9   59.9   57.4  30.181  0.00  0.00     0     0.00      0     0.0  0.00   0.0   0.037   0.000   74.1    55   56.9   74.3  10.07  .0738    0.000   211    5    100.0   10 
 6/22/18 12:20a   59.7   59.7   59.6    88   56.1   1.0    NE   0.17   3.0   ENE   59.7   59.9   59.9   57.4  30.185  0.00  0.00     0     0.00      0     0.0  0.00   0.0   0.037   0.000   74.1    55   56.9   74.3  10.07  .0738    0.000   211    5    100.0   10 
 6/22/18 12:30a   59.6   59.7   59.6    88   56.0   1.0   ENE   0.17   3.0   ENE   59.6   59.8   59.8   57.3  30.185  0.00  0.00     0     0.00      0     0.0  0.00   0.0   0.038   0.000   74.1    55   56.9   74.3  10.07  .0738    0.000   211    5    100.0   10 
 6/22/18 12:40a   59.6   59.7   59.6    88   56.0   2.0   ENE   0.33   4.0     E   59.6   59.8   59.8   57.3  30.182  0.00  0.00     0     0.00      0     0.0  0.00   0.0   0.038   0.000   74.1    55   56.9   74.3  10.07  .0738    0.000   210    5    100.0   10 
 6/22/18 12:50a   59.6   59.6   59.5    88   56.0   2.0   ENE   0.33   5.0    NE   59.6   59.8   59.8   57.3  30.183  0.00  0.00     0     0.00      0     0.0  0.00   0.0   0.038   0.000   74.1    55   56.9   74.3  10.07  .0738    0.000   212    5    100.0   10 
 6/22/18  1:00a   59.6   59.6   59.5    88   56.0   1.0   ENE   0.17   4.0   ENE   59.6   59.8   59.8   57.3  30.180  0.00  0.00     0     0.00      0     0.0  0.00   0.0   0.038   0.000   74.1    55   56.9   74.3  10.07  .0738    0.000   212    5    100.0   10 
 6/22/18  1:10a   59.5   59.6   59.5    88   55.9   1.0   ENE   0.17   3.0   ENE   59.5   59.7   59.7   57.2  30.183  0.00  0.00     0     0.00      0     0.0  0.00   0.0   0.038   0.000   74.2    55   57.0   74.5  10.07  .0738    0.000   210    5    100.0   10 
 6/22/18  1:20a   59.5   59.6   59.5    88   55.9   1.0    NE   0.17   3.0    NE   59.5   59.7   59.7   57.2  30.187  0.00  0.00     0     0.00      0     0.0  0.00   0.0   0.038   0.000   74.1    55   56.9   74.3  10.07  .0739    0.000   211    5    100.0   10 
 6/22/18  1:30a   59.5   59.6   59.5    88   55.9   0.0    NE   0.00   2.0    NE   59.5   59.7   59.7   57.2  30.187  0.00  0.00     0     0.00      0     0.0  0.00   0.0   0.038   0.000   74.2    55   57.0   74.5  10.07  .0738    0.000   214    5    100.0   10 
 6/22/18  1:40a   59.4   59.6   59.4    88   55.8   1.0    NE   0.17   3.0   ENE   59.4   59.6   59.6   57.1  30.186  0.00  0.00     0     0.00      0     0.0  0.00   0.0   0.039   0.000   74.2    55   57.0   74.5  10.07  .0738    0.000   210    5    100.0   10 
 6/22/18  1:50a   59.3   59.4   59.3    88   55.7   2.0    NE   0.33   6.0     E   59.3   59.4   59.4   56.9  30.189  0.00  0.00     0     0.00      0     0.0  0.00   0.0   0.040   0.000   74.2    55   57.0   74.5  10.07  .0738    0.000   212    5    100.0   10 
 6/22/18  2:00a   59.1   59.3   59.1    88   55.5   3.0   ENE   0.50   8.0   ENE   59.1   59.2   59.2   56.7  30.192  0.00  0.00     0     0.00      0     0.0  0.00   0.0   0.041   0.000   74.2    55   57.0   74.5  10.07  .0738    0.000   213    5    100.0   10 
 6/22/18  2:10a   59.1   59.1   59.1    88   55.5   2.0   ENE   0.33   5.0   ENE   59.1   59.2   59.2   56.7  30.191  0.00  0.00     0     0.00      0     0.0  0.00   0.0   0.041   0.000   74.2    55   57.0   74.5  10.07  .0738    0.000   211    5    100.0   10 
 6/22/18  2:20a   59.1   59.1   59.1    88   55.5   2.0   ENE   0.33   4.0   NNE   59.1   59.2   59.2   56.7  30.195  0.00  0.00     0     0.00      0     0.0  0.00   0.0   0.041   0.000   74.2    55   57.0   74.5  10.07  .0739    0.000   213    5    100.0   10 
 6/22/18  2:30a   59.2   59.2   59.1    88   55.6   2.0    NE   0.33   5.0   NNE   59.2   59.3   59.3   56.8  30.199  0.00  0.00     0     0.00      0     0.0  0.00   0.0   0.040   0.000   74.2    55   57.0   74.5  10.07  .0739    0.000   214    5    100.0   10 
 6/22/18  2:40a   59.1   59.2   59.1    88   55.5   2.0   ENE   0.33   5.0   ENE   59.1   59.2   59.2   56.7  30.199  0.00  0.00     0     0.00      0     0.0  0.00   0.0   0.041   0.000   74.2    55   57.0   74.5  10.07  .0739    0.000   208    5    100.0   10 
 6/22/18  2:50a   59.1   59.2   59.1    87   55.2   2.0   ENE   0.33   4.0    NE   59.1   59.2   59.2   56.7  30.198  0.00  0.00     0     0.00      0     0.0  0.00   0.0   0.041   0.000   74.2    55   57.0   74.5  10.07  .0739    0.000   212    5    100.0   10 
 6/22/18  3:00a   59.1   59.1   59.0    87   55.2   3.0   ENE   0.50   7.0     E   59.1   59.2   59.2   56.7  30.197  0.00  0.00     0     0.00      0     0.0  0.00   0.0   0.041   0.000   74.2    54   56.5   74.4   9.87  .0739    0.001   213    5    100.0   10 
 6/22/18  3:10a   58.9   59.0   58.9    87   55.0   3.0   ENE   0.50  10.0   ENE   58.9   59.0   59.0   56.5  30.197  0.00  0.00     0     0.00      0     0.0  0.00   0.0   0.042   0.000   74.2    54   56.5   74.4   9.87  .0739    0.000   213    5    100.0   10 
 6/22/18  3:20a   59.0   59.0   58.9    87   55.1   1.0    NE   0.17   5.0   ENE   59.0   59.1   59.1   56.6  30.201  0.00  0.00     0     0.00      0     0.0  0.00   0.0   0.042   0.000   74.1    54   56.4   74.2   9.87  .0739    0.000   212    5    100.0   10 
 6/22/18  3:30a   59.0   59.0   59.0    87   55.1   2.0   ENE   0.33   4.0    NE   59.0   59.1   59.1   56.6  30.197  0.00  0.00     0     0.00      0     0.0  0.00   0.0   0.042   0.000   74.2    54   56.5   74.4   9.87  .0739    0.000   213    5    100.0   10 
 6/22/18  3:40a   59.1   59.1   59.0    87   55.2   2.0   ENE   0.33   7.0   ENE   59.1   59.2   59.2   56.7  30.198  0.00  0.00     0     0.00      0     0.0  0.00   0.0   0.041   0.000   74.1    54   56.4   74.2   9.87  .0739    0.000   213    5    100.0   10 
 6/22/18  3:50a   59.2   59.2   59.1    87   55.3   3.0   ENE   0.50   7.0   ENE   59.2   59.3   59.3   56.8  30.197  0.00  0.00     0     0.00      0     0.0  0.00   0.0   0.040   0.000   74.1    54   56.4   74.2   9.87  .0739    0.000   211    5    100.0   10 
 6/22/18  4:00a   59.2   59.2   59.2    87   55.3   3.0     E   0.50   9.0     E   59.2   59.3   59.3   56.8  30.193  0.00  0.00     0     0.00      0     0.0  0.00   0.0   0.040   0.000   74.1    54   56.4   74.2   9.87  .0739    0.001   214    5    100.0   10 
 6/22/18  4:10a   59.3   59.3   59.2    87   55.4   3.0   ENE   0.50   5.0   ENE   59.3   59.4   59.4   56.9  30.195  0.00  0.00     0     0.00      0     0.0  0.00   0.0   0.040   0.000   74.1    54   56.4   74.2   9.87  .0739    0.000   212    5    100.0   10 
 6/22/18  4:20a   59.3   59.3   59.2    87   55.4   3.0   ENE   0.50   6.0     E   59.3   59.4   59.4   56.9  30.196  0.00  0.00     0     0.00      0     0.0  0.00   0.0   0.040   0.000   74.1    54   56.4   74.2   9.87  .0739    0.000   211    5    100.0   10 
 6/22/18  4:30a   59.2   59.3   59.2    87   55.3   3.0   ENE   0.50   6.0    NE   59.2   59.3   59.3   56.8  30.198  0.00  0.00     0     0.00      0     0.0  0.00   0.0   0.040   0.000   74.1    54   56.4   74.2   9.87  .0739    0.000   213    5    100.0   10 
 6/22/18  4:40a   59.2   59.2   59.1    87   55.3   2.0   ENE   0.33   5.0     E   59.2   59.3   59.3   56.8  30.195  0.00  0.00     0     0.00      0     0.0  0.00   0.0   0.040   0.000   74.1    54   56.4   74.2   9.87  .0739    0.000   213    5    100.0   10 
 6/22/18  4:50a   59.1   59.2   59.1    87   55.2   2.0   ENE   0.33   6.0   ENE   59.1   59.2   59.2   56.7  30.195  0.00  0.00     0     0.00      0     0.0  0.00   0.0   0.041   0.000   74.0    54   56.3   74.1   9.87  .0739    0.000   209    5    100.0   10 
 6/22/18  5:00a   59.1   59.1   59.1    86   54.9   3.0   ENE   0.50   7.0     E   59.1   59.1   59.1   56.5  30.193  0.00  0.00     0     0.00      0     0.0  0.00   0.0   0.041   0.000   74.0    54   56.3   74.1   9.87  .0739    0.001   211    5    100.0   10 
 6/22/18  5:10a   59.1   59.1   59.1    86   54.9   3.0   ENE   0.50   8.0   ENE   59.1   59.1   59.1   56.5  30.195  0.00  0.00     0     0.00      0     0.0  0.00   0.0   0.041   0.000   74.0    54   56.3   74.1   9.87  .0739    0.000   213    5    100.0   10 
 6/22/18  5:20a   59.0   59.1   59.0    86   54.8   3.0   ENE   0.50   6.0   ENE   59.0   59.0   59.0   56.4  30.197  0.00  0.00     0     0.00      0     0.0  0.00   0.0   0.042   0.000   74.0    54   56.3   74.1   9.87  .0739    0.000   211    5    100.0   10 
 6/22/18  5:30a   59.0   59.1   59.0    86   54.8   3.0   ENE   0.50   6.0     E   59.0   59.0   59.0   56.4  30.200  0.00  0.00     0     0.00      0     0.0  0.00   0.0   0.042   0.000   74.0    54   56.3   74.1   9.87  .0739    0.000   211    5    100.0   10 
 6/22/18  5:40a   59.0   59.0   59.0    86   54.8   3.0   ENE   0.50   7.0     E   59.0   59.0   59.0   56.4  30.204  0.00  0.00     0     0.00      5     0.0  0.00   0.0   0.042   0.000   74.0    54   56.3   74.1   9.87  .0739    0.000   213    5    100.0   10 
 6/22/18  5:50a   59.1   59.1   59.0    86   54.9   3.0   ENE   0.50   7.0   ENE   59.1   59.1   59.1   56.6  30.205  0.00  0.00     6     0.09      7     0.0  0.00   0.0   0.041   0.000   74.0    54   56.3   74.1   9.87  .0739    0.000   211    5    100.0   10 
 6/22/18  6:00a   59.1   59.1   59.0    85   54.6   3.0   ENE   0.50   7.0     E   59.1   59.1   59.1   56.8  30.208  0.00  0.00    11     0.16     14     0.0  0.00   0.0   0.041   0.000   73.9    54   56.2   74.0   9.87  .0740    0.000   213    5    100.0   10 
 6/22/18  6:10a   59.1   59.1   59.0    85   54.6   2.0   ENE   0.33   5.0   ENE   59.1   59.1   59.1   56.9  30.210  0.00  0.00    18     0.26     21     0.0  0.00   0.0   0.041   0.000   73.9    54   56.2   74.0   9.87  .0740    0.000   212    5    100.0   10 
 6/22/18  6:20a   59.2   59.2   59.1    85   54.7   2.0   ENE   0.33   6.0   ENE   59.2   59.2   59.2   57.1  30.210  0.00  0.00    21     0.30     23     0.0  0.00   0.0   0.040   0.000   73.9    54   56.2   74.0   9.87  .0740    0.000   209    5    100.0   10 
 6/22/18  6:30a   59.3   59.3   59.2    85   54.8   2.0   ENE   0.33   4.0   ENE   59.3   59.3   59.3   57.3  30.210  0.00  0.00    27     0.39     28     0.0  0.00   0.0   0.040   0.000   73.9    54   56.2   74.0   9.87  .0740    0.000   214    5    100.0   10 
 6/22/18  6:40a   59.4   59.4   59.3    85   54.9   2.0     E   0.33   4.0   ENE   59.4   59.4   59.4   57.5  30.204  0.00  0.00    32     0.46     35     0.0  0.00   0.0   0.039   0.000   73.9    54   56.2   74.0   9.87  .0740    0.000   213    5    100.0   10 
 6/22/18  6:50a   59.5   59.5   59.4    85   55.0   1.0     E   0.17   3.0   ENE   59.5   59.5   59.5   57.7  30.207  0.00  0.00    37     0.53     42     0.0  0.00   0.0   0.038   0.000   73.8    54   56.1   73.9   9.87  .0740    0.000   210    5    100.0   10 
 6/22/18  7:00a   59.7   59.7   59.5    85   55.2   1.0     E   0.17   3.0     E   59.7   59.8   59.8   60.4  30.207  0.00  0.00    50     0.72     56     0.0  0.00   0.0   0.037   0.000   73.8    54   56.1   73.9   9.87  .0740    0.001   212    5    100.0   10 
 6/22/18  7:10a   59.8   59.8   59.6    85   55.3   2.0   ENE   0.33   4.0    NE   59.8   59.9   59.9   60.8  30.209  0.00  0.00    57     0.82     62     0.0  0.00   0.0   0.036   0.000   73.8    54   56.1   73.9   9.87  .0740    0.000   210    5    100.0   10 
 6/22/18  7:20a   59.9   60.0   59.8    85   55.4   2.0   ENE   0.33   4.0     E   59.9   60.0   60.0   61.1  30.215  0.00  0.00    63     0.90     63     0.0  0.00   0.0   0.035   0.000   73.8    54   56.1   73.9   9.87  .0740    0.000   211    5    100.0   10 
 6/22/18  7:30a   60.0   60.0   59.9    85   55.5   2.0   ENE   0.33   3.0   ENE   60.0   60.1   60.1   61.2  30.217  0.00  0.00    66     0.95     67     0.0  0.00   0.0   0.035   0.000   73.8    54   56.1   73.9   9.87  .0740    0.000   212    5    100.0   10 
 6/22/18  7:40a   60.2   60.2   60.0    85   55.7   2.0   ENE   0.33   4.0   ENE   60.2   60.3   60.3   61.6  30.217  0.00  0.00    73     1.05     77     0.0  0.00   0.0   0.033   0.000   73.7    54   56.0   73.7   9.88  .0740    0.000   212    5    100.0   10 
 6/22/18  7:50a   60.4   60.4   60.2    85   55.9   2.0   ENE   0.33   4.0     E   60.4   60.5   60.5   62.1  30.220  0.00  0.00    82     1.18     90     0.0  0.00   0.0   0.032   0.000   73.7    54   56.0   73.7   9.88  .0740    0.000   212    5    100.0   10 
 6/22/18  8:00a   60.5   60.5   60.3    85   56.0   1.0     E   0.17   3.0   ENE   60.5   60.7   60.7   62.5  30.220  0.00  0.00    90     1.29     93     0.0  0.00   0.0   0.031   0.000   73.8    54   56.1   73.9   9.87  .0740    0.002   212    5    100.0   10 
 6/22/18  8:10a   60.6   60.6   60.5    84   55.7   2.0   ENE   0.33   4.0    NE   60.6   60.7   60.7   62.6  30.221  0.00  0.00    96     1.38    105     0.0  0.00   0.0   0.031   0.000   73.8    54   56.1   73.9   9.87  .0740    0.000   210    5    100.0   10 
 6/22/18  8:20a   59.9   60.6   59.9    85   55.4   3.0     N   0.50   4.0     N   59.9   60.0   60.0   62.5  30.224  0.00  0.00   118     1.69    130     0.0  0.00   0.0   0.035   0.000   73.8    54   56.1   73.9   9.87  .0740    0.000   214    5    100.0   10 
 6/22/18  8:30a   60.1   60.1   59.8    86   55.9   2.0     N   0.33   4.0     N   60.1   60.2   60.2   63.1  30.228  0.00  0.00   132     1.89    134     0.0  0.00   0.0   0.034   0.000   73.8    54   56.1   73.9   9.87  .0740    0.000   209    5    100.0   10 
 6/22/18  8:40a   60.1   60.1   60.0    86   55.9   2.0     N   0.33   4.0     N   60.1   60.2   60.2   63.0  30.231  0.00  0.00   133     1.91    139     0.0  0.00   0.0   0.034   0.000   73.8    54   56.1   73.9   9.87  .0740    0.000   210    5    100.0   10 
 6/22/18  8:50a   60.1   60.3   60.0    86   55.9   2.0     N   0.33   4.0   ENE   60.1   60.2   60.2   62.4  30.235  0.00  0.00   121     1.73    134     0.0  0.00   0.0   0.034   0.000   73.8    54   56.1   73.9   9.87  .0740    0.000   213    5    100.0   10 
 6/22/18  9:00a   60.3   60.3   60.0    86   56.1   2.0     N   0.33   3.0     N   60.3   60.5   60.5   63.1  30.232  0.00  0.00   134     1.92    141     0.0  0.00   0.0   0.033   0.000   73.8    54   56.1   73.9   9.87  .0740    0.003   213    5    100.0   10 
 6/22/18  9:10a   60.5   60.5   60.2    86   56.3   2.0    NE   0.33   4.0    NE   60.5   60.7   60.7   63.1  30.234  0.00  0.00   133     1.91    141     0.0  0.00   0.0   0.031   0.000   73.8    54   56.1   73.9   9.87  .0740    0.000   213    5    100.0   10 
 6/22/18  9:20a   60.8   60.8   60.4    86   56.6   2.0    NE   0.33   4.0   NNE   60.8   61.0   61.0   64.8  30.231  0.00  0.00   186     2.67    227     0.0  0.00   0.0   0.029   0.000   73.8    54   56.1   73.9   9.87  .0740    0.000   212    5    100.0   10 
 6/22/18  9:30a   61.1   61.1   60.7    86   56.9   3.0    NE   0.50   7.0    NE   61.1   61.3   61.3   65.2  30.232  0.00  0.00   195     2.80    220     0.0  0.00   0.0   0.027   0.000   73.8    54   56.1   73.9   9.87  .0740    0.000   213    5    100.0   10 
 6/22/18  9:40a   61.1   61.2   61.1    85   56.6   3.0    NE   0.50   5.0   ENE   61.1   61.3   61.3   64.6  30.236  0.00  0.00   178     2.55    183     0.0  0.00   0.0   0.027   0.000   73.8    54   56.1   73.9   9.87  .0740    0.000   211    5    100.0   10 
 6/22/18  9:50a   61.0   61.1   60.9    85   56.5   3.0    NE   0.50   5.0    NE   61.0   61.2   61.2   64.2  30.238  0.00  0.00   169     2.42    188     0.0  0.00   0.0   0.028   0.000   73.8    54   56.1   73.9   9.87  .0741    0.000   211    5    100.0   10 
 6/22/18 10:00a   61.1   61.1   61.0    86   56.9   4.0    NE   0.67   5.0   ENE   61.1   61.3   61.3   65.2  30.240  0.00  0.00   210     3.01    236     0.0  0.00   0.0   0.027   0.000   73.8    54   56.1   73.9   9.87  .0741    0.004   212    5    100.0   10 
 6/22/18 10:10a   61.4   61.4   61.1    85   56.8   3.0    NE   0.50   5.0   ENE   61.4   61.6   61.6   66.4  30.241  0.00  0.00   254     3.64    262     0.0  0.00   0.0   0.025   0.000   73.8    54   56.1   73.9   9.87  .0741    0.000   213    5    100.0   10 
 6/22/18 10:20a   61.8   61.8   61.4    86   57.6   4.0    NE   0.67   6.0   NNE   61.8   62.1   62.1   68.0  30.241  0.00  0.00   303     4.34    322     0.0  0.00   0.0   0.022   0.000   73.8    54   56.1   73.9   9.87  .0741    0.000   214    5    100.0   10 
 6/22/18 10:30a   62.1   62.1   61.8    86   57.9   5.0   NNE   0.83   9.0    NE   62.1   62.5   62.5   69.0  30.240  0.00  0.00   333     4.77    343     0.0  0.00   0.0   0.020   0.000   73.8    54   56.1   73.9   9.87  .0741    0.000   210    5    100.0   10 
 6/22/18 10:40a   62.3   62.3   62.1    85   57.7   6.0   NNE   1.00  10.0   NNE   62.3   62.7   62.7   70.6  30.236  0.00  0.00   413     5.92    522     0.3  0.02   1.3   0.019   0.000   73.8    54   56.1   73.9   9.87  .0740    0.000   212    5    100.0   10 
 6/22/18 10:50a   62.8   62.9   62.3    84   57.9   6.0    NE   1.00  11.0    NE   62.8   63.2   63.2   73.0  30.234  0.00  0.00   539     7.73    598     2.1  0.15   2.8   0.015   0.000   73.8    54   56.1   73.9   9.87  .0740    0.000   212    5    100.0   10 
 6/22/18 11:00a   63.0   63.2   62.8    83   57.8   7.0    NE   1.17  12.0   NNE   62.9   63.4   63.3   71.8  30.235  0.00  0.00   470     6.74    501     2.2  0.16   2.7   0.014   0.000   73.8    54   56.1   73.9   9.87  .0740    0.009   211    5    100.0   10 
 6/22/18 11:10a   62.7   63.1   62.7    83   57.5   7.0    NE   1.17  11.0   NNE   62.5   63.1   62.9   70.8  30.238  0.00  0.00   438     6.28    473     1.9  0.14   2.6   0.016   0.000   73.8    54   56.1   73.9   9.87  .0741    0.000   211    5    100.0   10 
 6/22/18 11:20a   62.1   62.7   62.1    84   57.2   9.0    NE   1.50  13.0    NE   60.1   62.4   60.4   67.0  30.239  0.00  0.00   397     5.69    510     1.5  0.11   2.5   0.020   0.000   73.7    54   56.0   73.7   9.88  .0741    0.000   214    5    100.0   10 
 6/22/18 11:30a   62.3   62.4   62.1    85   57.7   8.0    NE   1.33  12.0    NE   61.3   62.7   61.7   69.6  30.240  0.00  0.00   464     6.65    512     2.1  0.15   3.6   0.019   0.000   73.6    54   55.9   73.6   9.88  .0741    0.000   213    5    100.0   10 
 6/22/18 11:40a   62.2   62.3   62.0    85   57.6   8.0    NE   1.33  12.0   NNE   61.1   62.5   61.4   68.0  30.237  0.00  0.00   393     5.63    436     0.9  0.06   1.3   0.019   0.000   73.6    54   55.9   73.6   9.88  .0741    0.000   212    5    100.0   10 
 6/22/18 11:50a   62.7   62.7   62.2    85   58.1   6.0    NE   1.00  12.0    NE   62.7   63.1   63.1   70.8  30.237  0.00  0.00   427     6.12    554     1.4  0.10   2.4   0.016   0.000   73.6    54   55.9   73.6   9.88  .0741    0.000   212    5    100.0   10 
 6/22/18 12:00p   62.6   62.7   62.6    85   58.0   8.0    NE   1.33  12.0    NE   61.6   63.0   62.0   69.9  30.239  0.00  0.00   466     6.68    531     2.0  0.14   2.4   0.017   0.000   73.6    54   55.9   73.6   9.88  .0741    0.011   212    5    100.0   10 
 6/22/18 12:10p   62.6   62.7   62.5    85   58.0   8.0    NE   1.33  13.0   NNE   61.6   63.0   62.0   70.5  30.241  0.00  0.00   515     7.38    563     2.5  0.18   3.6   0.017   0.000   73.6    54   55.9   73.6   9.88  .0741    0.000   209    5    100.0   10 
 6/22/18 12:20p   63.0   63.0   62.5    85   58.4   7.0    NE   1.17  11.0     N   62.9   63.5   63.4   72.0  30.243  0.00  0.00   494     7.08    534     2.4  0.17   2.9   0.014   0.000   73.6    55   56.4   73.7  10.08  .0741    0.000   213    5    100.0   10 
 6/22/18 12:30p   63.2   63.2   63.0    84   58.3   7.0   NNE   1.17  13.0    NE   63.1   63.7   63.6   73.0  30.245  0.00  0.00   553     7.93    587     2.8  0.20   3.0   0.012   0.000   73.6    55   56.4   73.7  10.08  .0741    0.000   213    5    100.0   10 
 6/22/18 12:40p   63.2   63.2   63.1    84   58.3   8.0    NE   1.33  12.0    NE   62.3   63.7   62.8   72.0  30.245  0.00  0.00   565     8.10    645     3.0  0.21   3.3   0.012   0.000   73.8    54   56.1   73.9   9.87  .0741    0.000   213    5    100.0   10 
 6/22/18 12:50p   63.3   63.3   63.1    83   58.0   9.0    NE   1.50  12.0   NNE   61.6   63.8   62.1   71.1  30.244  0.00  0.00   584     8.37    619     3.6  0.26   5.5   0.012   0.000   73.8    54   56.1   73.9   9.87  .0741    0.000   211    5    100.0   10 
 6/22/18  1:00p   63.6   63.6   63.2    84   58.7   8.0    NE   1.33  13.0    NE   62.8   64.1   63.3   72.8  30.244  0.00  0.00   587     8.41    657     3.8  0.27   5.3   0.010   0.000   73.9    54   56.2   74.0   9.87  .0740    0.013   212    5    100.0   10 
 6/22/18  1:10p   64.1   64.1   63.6    82   58.5   8.0   NNE   1.33  15.0    NE   63.3   64.7   63.9   74.5  30.241  0.00  0.00   710    10.18    740     5.3  0.38   7.1   0.006   0.000   73.9    54   56.2   74.0   9.87  .0740    0.000   213    5    100.0   10 
 6/22/18  1:20p   64.8   64.8   64.1    82   59.2   7.0    NE   1.17  15.0    NE   64.8   65.5   65.5   76.3  30.242  0.00  0.00   674     9.66    765     4.6  0.33   6.0   0.001   0.000   73.9    54   56.2   74.0   9.87  .0740    0.000   213    5    100.0   10 
 6/22/18  1:30p   65.1   65.3   64.8    79   58.4   7.0    NE   1.17  13.0    NE   65.1   65.7   65.7   76.1  30.239  0.00  0.00   637     9.13    728     4.8  0.34   7.6   0.000   0.001   73.9    54   56.2   74.0   9.87  .0740    0.000   212    5    100.0   10 
 6/22/18  1:40p   64.7   65.1   64.7    80   58.4   8.0    NE   1.33  14.0   NNE   64.0   65.3   64.6   74.4  30.235  0.00  0.00   614     8.80    677     5.0  0.36   7.0   0.002   0.000   74.0    54   56.3   74.1   9.87  .0740    0.000   211    5    100.0   10 
 6/22/18  1:50p   64.7   64.7   64.6    80   58.4   8.0    NE   1.33  14.0    NE   64.0   65.3   64.6   74.7  30.235  0.00  0.00   659     9.45    726     4.9  0.35   6.5   0.002   0.000   74.0    54   56.3   74.1   9.87  .0740    0.000   213    5    100.0   10 
 6/22/18  2:00p   65.2   65.2   64.8    80   58.9   7.0    NE   1.17  13.0   ENE   65.2   65.9   65.9   76.9  30.232  0.00  0.00   701    10.05    740     4.3  0.31   6.3   0.000   0.001   74.0    54   56.3   74.1   9.87  .0740    0.018   211    5    100.0   10 
 6/22/18  2:10p   64.6   65.3   64.6    79   57.9   7.0    NE   1.17  14.0    NE   64.6   65.1   65.1   75.7  30.232  0.00  0.00   664     9.52    756     4.0  0.29   4.4   0.003   0.000   74.0    54   56.3   74.1   9.87  .0740    0.000   213    5    100.0   10 
 6/22/18  2:20p   64.9   64.9   64.6    79   58.2   8.0    NE   1.33  14.0    NE   64.3   65.5   64.9   75.7  30.232  0.00  0.00   811    11.63   1137     5.2  0.37   6.8   0.001   0.000   74.0    54   56.3   74.1   9.87  .0740    0.000   213    5    100.0   10 
 6/22/18  2:30p   65.5   65.5   64.9    78   58.5   8.0    NE   1.33  16.0    NE   64.9   66.1   65.5   76.7  30.230  0.00  0.00  1041    14.92   1134     5.7  0.41   6.1   0.000   0.003   73.9    54   56.2   74.0   9.87  .0740    0.000   211    5    100.0   10 
 6/22/18  2:40p   65.8   65.8   65.4    78   58.7   8.0    NE   1.33  15.0    NE   65.2   66.5   65.9   76.5  30.229  0.00  0.00   986    14.13   1062     5.5  0.39   5.7   0.000   0.006   73.9    54   56.2   74.0   9.87  .0740    0.000   213    5    100.0   10 
 6/22/18  2:50p   65.8   65.8   65.6    77   58.4   9.0    NE   1.50  16.0    NE   64.5   66.4   65.1   75.4  30.226  0.00  0.00   972    13.93   1011     5.4  0.39   6.0   0.000   0.006   74.0    54   56.3   74.1   9.87  .0740    0.000   212    5    100.0   10 
 6/22/18  3:00p   65.4   65.9   65.3    76   57.6  10.0    NE   1.67  16.0    NE   63.3   65.9   63.8   73.3  30.224  0.00  0.00   922    13.22    933     5.0  0.36   5.2   0.000   0.003   74.0    54   56.3   74.1   9.87  .0740    0.021   213    5    100.0   10 
 6/22/18  3:10p   65.2   65.3   64.9    76   57.4  10.0    NE   1.67  16.0    NE   63.0   65.6   63.4   72.6  30.222  0.00  0.00   887    12.72    909     4.6  0.33   4.9   0.000   0.001   74.0    54   56.3   74.1   9.87  .0740    0.000   208    5    100.0   10 
 6/22/18  3:20p   65.6   65.6   65.0    77   58.2   9.0    NE   1.50  15.0    NE   64.3   66.2   64.9   74.3  30.220  0.00  0.00   849    12.17    860     4.3  0.31   4.4   0.000   0.004   74.0    54   56.3   74.1   9.87  .0740    0.000   213    5    100.0   10 
 6/22/18  3:30p   65.4   65.8   65.4    76   57.6   9.0    NE   1.50  15.0   NNE   64.0   65.9   64.5   73.8  30.220  0.00  0.00   830    11.90    837     4.1  0.29   4.2   0.000   0.003   74.1    54   56.4   74.2   9.87  .0740    0.000   213    5    100.0   10 
 6/22/18  3:40p   65.3   65.5   65.2    76   57.5   9.0   NNE   1.50  14.0   NNE   63.9   65.7   64.3   73.7  30.218  0.00  0.00   812    11.64    819     3.9  0.28   4.0   0.000   0.002   74.0    54   56.3   74.1   9.87  .0740    0.000   212    5    100.0   10 
 6/22/18  3:50p   65.6   65.6   65.3    77   58.2   9.0    NE   1.50  15.0   ENE   64.3   66.2   64.9   74.4  30.220  0.00  0.00   792    11.35    802     3.5  0.25   3.7   0.000   0.004   74.1    54   56.4   74.2   9.87  .0740    0.000   213    5    100.0   10 
 6/22/18  4:00p   66.0   66.1   65.5    75   57.8   8.0    NE   1.33  14.0    NE   65.4   66.5   65.9   75.8  30.220  0.00  0.00   774    11.10    782     3.3  0.24   3.3   0.000   0.007   74.0    54   56.3   74.1   9.87  .0740    0.020   212    5    100.0   10 
 6/22/18  4:10p   66.0   66.1   65.9    75   57.8   7.0    NE   1.17  13.0    NE   66.0   66.5   66.5   76.8  30.220  0.00  0.00   753    10.79    763     3.1  0.22   3.2   0.000   0.007   74.1    54   56.4   74.2   9.87  .0740    0.000   214    5    100.0   10 
 6/22/18  4:20p   65.7   66.1   65.7    75   57.6   7.0    NE   1.17  12.0    NE   65.7   66.1   66.1   76.5  30.217  0.00  0.00   732    10.49    742     2.8  0.20   3.0   0.000   0.005   74.2    54   56.5   74.4   9.87  .0739    0.000   213    5    100.0   10 
 6/22/18  4:30p   65.6   65.7   65.5    75   57.5   7.0    NE   1.17  13.0    NE   65.6   66.0   66.0   76.4  30.218  0.00  0.00   710    10.18    719     2.4  0.17   2.6   0.000   0.004   74.2    54   56.5   74.4   9.87  .0739    0.000   212    5    100.0   10 
 6/22/18  4:40p   65.3   65.6   65.2    76   57.5   8.0    NE   1.33  12.0   NNE   64.7   65.7   65.1   75.2  30.216  0.00  0.00   688     9.86    698     2.0  0.14   2.2   0.000   0.002   74.2    54   56.5   74.4   9.87  .0739    0.000   212    5    100.0   10 
 6/22/18  4:50p   65.4   65.5   65.3    76   57.6   9.0    NE   1.50  13.0   NNE   64.0   65.9   64.5   74.2  30.212  0.00  0.00   664     9.52    675     1.5  0.11   1.7   0.000   0.003   74.3    54   56.6   74.5   9.86  .0739    0.000   210    5    100.0   10 
 6/22/18  5:00p   65.3   65.4   65.2    76   57.5   8.0    NE   1.33  12.0   NNE   64.7   65.7   65.1   75.2  30.213  0.00  0.00   641     9.19    652     0.9  0.06   1.2   0.000   0.002   74.3    54   56.6   74.5   9.86  .0739    0.017   211    5    100.0   10 
 6/22/18  5:10p   65.3   65.5   65.3    76   57.5   8.0    NE   1.33  13.0    NE   64.7   65.7   65.1   75.2  30.210  0.00  0.00   616     8.83    628     0.1  0.01   0.6   0.000   0.002   74.3    54   56.6   74.5   9.86  .0739    0.000   213    5    100.0   10 
 6/22/18  5:20p   65.2   65.5   65.2    75   57.1  10.0    NE   1.67  14.0    NE   63.0   65.5   63.3   72.7  30.207  0.00  0.00   589     8.44    601     0.0  0.00   0.0   0.000   0.001   74.4    54   56.7   74.6   9.86  .0739    0.000   210    5    100.0   10 
 6/22/18  5:30p   65.0   65.2   64.9    76   57.2  10.0    NE   1.67  14.0   NNE   62.8   65.4   63.2   72.6  30.201  0.00  0.00   564     8.09    575     0.0  0.00   0.0   0.000   0.000   74.4    54   56.7   74.6   9.86  .0739    0.000   212    5    100.0   10 
 6/22/18  5:40p   64.9   65.0   64.9    76   57.2  10.0    NE   1.67  14.0    NE   62.7   65.3   63.1   72.5  30.201  0.00  0.00   536     7.68    550     0.0  0.00   0.0   0.001   0.000   74.4    54   56.7   74.6   9.86  .0739    0.000   212    5    100.0   10 
 6/22/18  5:50p   64.9   64.9   64.9    76   57.2  10.0   NNE   1.67  14.0   NNE   62.7   65.3   63.1   72.4  30.199  0.00  0.00   508     7.28    520     0.0  0.00   0.0   0.001   0.000   74.4    54   56.7   74.6   9.86  .0738    0.000   212    5    100.0   10 
 6/22/18  6:00p   65.2   65.2   64.8    77   57.8   9.0   NNE   1.50  14.0    NE   63.8   65.7   64.3   73.9  30.197  0.00  0.00   481     6.90    492     0.0  0.00   0.0   0.000   0.001   74.4    54   56.7   74.6   9.86  .0738    0.014   213    5    100.0   10 
 6/22/18  6:10p   65.4   65.6   65.2    75   57.3   8.0    NE   1.33  13.0   ENE   64.8   65.8   65.2   75.1  30.195  0.00  0.00   453     6.49    466     0.0  0.00   0.0   0.000   0.003   74.4    54   56.7   74.6   9.86  .0738    0.000   212    5    100.0   10 
 6/22/18  6:20p   64.8   65.4   64.8    74   56.3   9.0   ENE   1.50  15.0   ENE   63.4   65.0   63.6   72.9  30.194  0.00  0.00   425     6.09    438     0.0  0.00   0.0   0.001   0.000   74.4    54   56.7   74.6   9.86  .0738    0.000   212    5    100.0   10 
 6/22/18  6:30p   64.4   64.8   64.4    75   56.3   9.0    NE   1.50  13.0    NE   62.9   64.6   63.1   72.1  30.193  0.00  0.00   396     5.68    406     0.0  0.00   0.0   0.004   0.000   74.4    54   56.7   74.6   9.86  .0738    0.000   211    5    100.0   10 
 6/22/18  6:40p   64.4   64.4   64.2    76   56.7   9.0    NE   1.50  13.0    NE   62.9   64.7   63.2   72.1  30.190  0.00  0.00   369     5.29    381     0.0  0.00   0.0   0.004   0.000   74.4    54   56.7   74.6   9.86  .0738    0.000   212    5    100.0   10 
 6/22/18  6:50p   64.2   64.4   64.2    76   56.5   9.0   ENE   1.50  17.0    NE   62.6   64.4   62.8   71.4  30.190  0.00  0.00   340     4.87    352     0.0  0.00   0.0   0.006   0.000   74.4    54   56.7   74.6   9.86  .0738    0.000   212    5    100.0   10 
 6/22/18  7:00p   64.2   64.3   64.2    77   56.8   8.0   ENE   1.33  17.0    NE   63.4   64.5   63.7   72.2  30.193  0.00  0.00   312     4.47    325     0.0  0.00   0.0   0.006   0.000   74.4    54   56.7   74.6   9.86  .0738    0.010   212    5    100.0   10 
 6/22/18  7:10p   64.1   64.3   64.1    77   56.7   7.0   ENE   1.17  12.0   ENE   64.1   64.4   64.4   72.7  30.193  0.00  0.00   284     4.07    297     0.0  0.00   0.0   0.006   0.000   74.4    54   56.7   74.6   9.86  .0738    0.000   212    5    100.0   10 
 6/22/18  7:20p   63.6   64.0   63.6    78   56.6   7.0    NE   1.17  14.0   NNE   63.6   63.9   63.9   71.4  30.194  0.00  0.00   255     3.66    269     0.0  0.00   0.0   0.010   0.000   74.4    54   56.7   74.6   9.86  .0738    0.000   212    5    100.0   10 
 6/22/18  7:30p   63.6   63.8   63.6    78   56.6   7.0    NE   1.17  11.0   ENE   63.6   63.9   63.9   70.6  30.193  0.00  0.00   226     3.24    239     0.0  0.00   0.0   0.010   0.000   74.4    54   56.7   74.6   9.86  .0738    0.000   212    5    100.0   10 
 6/22/18  7:40p   63.5   63.6   63.5    79   56.9   7.0    NE   1.17  12.0    NE   63.5   63.8   63.8   70.1  30.193  0.00  0.00   207     2.97    211     0.0  0.00   0.0   0.010   0.000   74.5    54   56.8   74.8   9.86  .0738    0.000   212    5    100.0   10 
 6/22/18  7:50p   63.4   63.5   63.4    79   56.8   7.0    NE   1.17  11.0   NNE   63.3   63.7   63.6   68.8  30.194  0.00  0.00   175     2.51    204     0.0  0.00   0.0   0.011   0.000   74.6    54   56.9   74.9   9.86  .0738    0.000   211    5    100.0   10 
 6/22/18  8:00p   63.1   63.5   63.1    79   56.5   8.0   ENE   1.33  13.0     E   62.2   63.3   62.4   62.5  30.188  0.00  0.00   134     1.92    151     0.0  0.00   0.0   0.013   0.000   74.6    54   56.9   74.9   9.86  .0738    0.006   212    5    100.0   10 
 6/22/18  8:10p   62.5   63.1   62.5    80   56.2   8.0    NE   1.33  13.0   NNE   61.5   62.8   61.8   61.2  30.188  0.00  0.00   102     1.46    114     0.0  0.00   0.0   0.017   0.000   74.6    54   56.9   74.9   9.86  .0738    0.000   213    5    100.0   10 
 6/22/18  8:20p   62.1   62.5   62.1    80   55.9   8.0    NE   1.33  13.0   NNE   61.0   62.3   61.2   60.0  30.187  0.00  0.00    72     1.03     84     0.0  0.00   0.0   0.020   0.000   74.7    54   56.9   75.0   9.86  .0738    0.000   210    5    100.0   10 
 6/22/18  8:30p   61.8   62.1   61.8    81   55.9   7.0    NE   1.17  12.0     E   61.4   62.0   61.6   59.8  30.184  0.00  0.00    48     0.69     56     0.0  0.00   0.0   0.022   0.000   74.7    54   56.9   75.0   9.86  .0738    0.000   211    5    100.0   10 
 6/22/18  8:40p   61.5   61.8   61.5    81   55.6   6.0    NE   1.00  10.0    NE   61.4   61.6   61.5   59.4  30.185  0.00  0.00    31     0.44     37     0.0  0.00   0.0   0.024   0.000   74.7    54   56.9   75.0   9.86  .0738    0.000   212    5    100.0   10 
 6/22/18  8:50p   61.1   61.5   61.1    82   55.6   6.0   ENE   1.00  11.0    NE   60.9   61.2   61.0   58.6  30.183  0.00  0.00    17     0.24     25     0.0  0.00   0.0   0.027   0.000   74.8    54   57.0   75.2   9.85  .0737    0.000   211    5    100.0   10 
 6/22/18  9:00p   60.5   61.1   60.5    83   55.3   6.0    NE   1.00  11.0    NE   60.2   60.6   60.3   57.7  30.184  0.00  0.00     8     0.11     11     0.0  0.00   0.0   0.031   0.000   74.7    54   56.9   75.0   9.86  .0738    0.002   212    5    100.0   10 
 6/22/18  9:10p   60.1   60.4   60.1    83   54.9   5.0   ENE   0.83  11.0    NE   60.1   60.1   60.1   57.3  30.182  0.00  0.00     2     0.03      5     0.0  0.00   0.0   0.034   0.000   74.7    54   56.9   75.0   9.86  .0738    0.000   213    5    100.0   10 
 6/22/18  9:20p   60.1   60.1   60.0    84   55.2   4.0   ENE   0.67   8.0   ENE   60.1   60.2   60.2   57.4  30.187  0.00  0.00     0     0.00      0     0.0  0.00   0.0   0.034   0.000   74.7    54   56.9   75.0   9.86  .0738    0.000   212    5    100.0   10 
 6/22/18  9:30p   59.9   60.1   59.9    84   55.1   4.0   ENE   0.67  10.0   ENE   59.9   60.0   60.0   57.2  30.191  0.00  0.00     0     0.00      0     0.0  0.00   0.0   0.035   0.000   74.7    54   56.9   75.0   9.86  .0738    0.000   209    5    100.0   10 
 6/22/18  9:40p   59.8   59.9   59.8    84   55.0   3.0   ENE   0.50   7.0   ENE   59.8   59.8   59.8   56.9  30.191  0.00  0.00     0     0.00      0     0.0  0.00   0.0   0.036   0.000   74.7    54   56.9   75.0   9.86  .0738    0.000   213    5    100.0   10 
 6/22/18  9:50p   59.8   59.8   59.8    84   55.0   4.0   ENE   0.67   9.0    NE   59.8   59.8   59.8   56.9  30.195  0.00  0.00     0     0.00      0     0.0  0.00   0.0   0.036   0.000   74.7    54   56.9   75.0   9.86  .0738    0.000   209    5    100.0   10 
 6/22/18 10:00p   59.8   59.8   59.8    84   55.0   4.0   ENE   0.67  11.0   ENE   59.8   59.8   59.8   56.9  30.195  0.00  0.00     0     0.00      0     0.0  0.00   0.0   0.036   0.000   74.7    54   56.9   75.0   9.86  .0738    0.001   213    5    100.0   10 
 6/22/18 10:10p   59.8   59.8   59.8    85   55.3   4.0   ENE   0.67   9.0   ENE   59.8   59.9   59.9   57.1  30.197  0.00  0.00     0     0.00      0     0.0  0.00   0.0   0.036   0.000   74.7    54   56.9   75.0   9.86  .0738    0.000   211    5    100.0   10 
 6/22/18 10:20p   59.8   59.8   59.8    85   55.3   3.0   ENE   0.50   9.0   ENE   59.8   59.9   59.9   57.1  30.199  0.00  0.00     0     0.00      0     0.0  0.00   0.0   0.036   0.000   74.7    54   56.9   75.0   9.86  .0738    0.000   212    5    100.0   10 
 6/22/18 10:30p   59.8   59.9   59.8    85   55.3   4.0   ENE   0.67   9.0   ENE   59.8   59.9   59.9   57.1  30.197  0.00  0.00     0     0.00      0     0.0  0.00   0.0   0.036   0.000   74.7    54   56.9   75.0   9.86  .0738    0.000   213    5    100.0   10 
 6/22/18 10:40p   59.9   59.9   59.8    85   55.4   5.0   ENE   0.83  11.0   ENE   59.9   60.0   60.0   57.2  30.196  0.00  0.00     0     0.00      0     0.0  0.00   0.0   0.035   0.000   74.7    54   56.9   75.0   9.86  .0738    0.000   212    5    100.0   10 
 6/22/18 10:50p   59.8   59.9   59.8    85   55.3   6.0     E   1.00  12.0   ESE   59.4   59.9   59.5   56.7  30.189  0.00  0.00     0     0.00      0     0.0  0.00   0.0   0.036   0.000   74.7    54   56.9   75.0   9.86  .0738    0.000   213    5    100.0   10 
 6/22/18 11:00p   59.7   59.8   59.7    85   55.2   4.0   ENE   0.67  10.0   ENE   59.7   59.8   59.8   57.0  30.184  0.00  0.00     0     0.00      0     0.0  0.00   0.0   0.037   0.000   74.7    54   56.9   75.0   9.86  .0738    0.001   210    5    100.0   10 
 6/22/18 11:10p   59.6   59.7   59.6    85   55.1   4.0   ENE   0.67  14.0   ENE   59.6   59.7   59.7   56.9  30.184  0.00  0.00     0     0.00      0     0.0  0.00   0.0   0.038   0.000   74.7    54   56.9   75.0   9.86  .0738    0.000   211    5    100.0   10 
 6/22/18 11:20p   59.4   59.6   59.3    85   54.9   3.0     E   0.50   8.0   ENE   59.4   59.4   59.4   56.5  30.184  0.00  0.00     0     0.00      0     0.0  0.00   0.0   0.039   0.000   74.7    54   56.9   75.0   9.86  .0738    0.000   211    5    100.0   10 
 6/22/18 11:30p   59.3   59.4   59.3    86   55.1   4.0     E   0.67   9.0   ENE   59.3   59.4   59.4   56.6  30.185  0.00  0.00     0     0.00      0     0.0  0.00   0.0   0.040   0.000   74.7    54   56.9   75.0   9.86  .0738    0.000   211    5    100.0   10 
 6/22/18 11:40p   59.4   59.4   59.3    86   55.2   3.0     E   0.50   8.0   ESE   59.4   59.5   59.5   56.7  30.186  0.00  0.00     0     0.00      0     0.0  0.00   0.0   0.039   0.000   74.7    54   56.9   75.0   9.86  .0738    0.000   213    5    100.0   10 
 6/22/18 11:50p   59.5   59.5   59.4    86   55.3   4.0   ENE   0.67  12.0   ENE   59.5   59.6   59.6   56.8  30.184  0.00  0.00     0     0.00      0     0.0  0.00   0.0   0.038   0.000   74.7    54   56.9   75.0   9.86  .0738    0.000   212    5    100.0   10 
 6/23/18 12:00a   59.6   59.6   59.5    86   55.4   4.0     E   0.67  10.0   ENE   59.6   59.7   59.7   56.9  30.184  0.00  0.00     0     0.00      0     0.0  0.00   0.0   0.038   0.000   74.7    54   56.9   75.0   9.86  .0738    0.001   213    5    100.0   10 
 6/23/18 12:10a   59.7   59.7   59.6    86   55.5   4.0     E   0.67  11.0   ENE   59.7   59.8   59.8   57.0  30.182  0.00  0.00     0     0.00      0     0.0  0.00   0.0   0.037   0.000   74.7    54   56.9   75.0   9.86  .0738    0.000   210    5    100.0   10 
 6/23/18 12:20a   59.7   59.7   59.6    86   55.5   5.0     E   0.83  12.0   ENE   59.6   59.8   59.7   56.9  30.180  0.00  0.00     0     0.00      0     0.0  0.00   0.0   0.037   0.000   74.7    54   56.9   75.0   9.86  .0737    0.000   212    5    100.0   10 
 6/23/18 12:30a   59.8   59.8   59.7    86   55.6   5.0   ENE   0.83  12.0    NE   59.8   59.9   59.9   57.1  30.178  0.00  0.00     0     0.00      0     0.0  0.00   0.0   0.036   0.000   74.7    54   56.9   75.0   9.86  .0737    0.000   210    5    100.0   10 
 6/23/18 12:40a   59.8   59.8   59.8    86   55.6   5.0     E   0.83  11.0     E   59.8   59.9   59.9   57.1  30.176  0.00  0.00     0     0.00      0     0.0  0.00   0.0   0.036   0.000   74.7    54   56.9   75.0   9.86  .0737    0.000   210    5    100.0   10 
 6/23/18 12:50a   59.8   59.8   59.8    86   55.6   5.0   ENE   0.83  10.0    NE   59.8   59.9   59.9   57.1  30.178  0.00  0.00     0     0.00      0     0.0  0.00   0.0   0.036   0.000   74.6    54   56.9   74.9   9.86  .0738    0.000   211    5    100.0   10 
 6/23/18  1:00a   59.9   59.9   59.8    86   55.7   3.0   ENE   0.50  10.0   ENE   59.9   60.0   60.0   57.2  30.179  0.00  0.00     0     0.00      0     0.0  0.00   0.0   0.035   0.000   74.6    54   56.9   74.9   9.86  .0738    0.001   213    5    100.0   10 
Email: AdamSPAM@StormwatchersRetreat.com (To send me email remove the word 'SPAM' from my email address.)